createdAt,value
2023-11-24T00:01:42.074Z,2.60
2023-11-24T00:04:09.382Z,2.60
2023-11-24T00:06:37.048Z,2.60
2023-11-24T00:09:04.072Z,2.60
2023-11-24T00:11:31.182Z,2.60
2023-11-24T00:13:58.120Z,2.70
2023-11-24T00:16:25.258Z,2.70
2023-11-24T00:18:52.421Z,2.70
2023-11-24T00:21:19.431Z,2.60
2023-11-24T00:23:46.556Z,2.60
2023-11-24T00:26:13.572Z,2.60
2023-11-24T00:28:40.898Z,2.60
2023-11-24T00:31:08.751Z,2.50
2023-11-24T00:33:36.498Z,2.60
2023-11-24T00:36:03.776Z,2.60
2023-11-24T00:38:31.137Z,2.60
2023-11-24T00:40:58.165Z,2.60
2023-11-24T00:43:26.351Z,2.60
2023-11-24T00:45:54.746Z,2.60
2023-11-24T00:48:24.283Z,2.60
2023-11-24T00:50:51.738Z,2.60
2023-11-24T00:53:18.753Z,2.60
2023-11-24T00:55:45.839Z,2.60
2023-11-24T00:58:12.846Z,2.60
2023-11-24T01:00:40.008Z,2.60
2023-11-24T01:03:07.314Z,2.60
2023-11-24T01:05:34.509Z,2.60
2023-11-24T01:08:01.816Z,2.60
2023-11-24T01:10:31.241Z,2.60
2023-11-24T01:12:59.761Z,2.60
2023-11-24T01:15:27.315Z,2.50
2023-11-24T01:17:56.166Z,2.50
2023-11-24T01:20:23.797Z,2.50
2023-11-24T01:22:50.748Z,2.50
2023-11-24T01:25:17.782Z,2.50
2023-11-24T01:27:44.807Z,2.50
2023-11-24T01:30:12.411Z,2.50
2023-11-24T01:32:39.990Z,2.50
2023-11-24T01:35:07.820Z,2.50
2023-11-24T01:37:34.966Z,2.50
2023-11-24T01:40:02.162Z,2.50
2023-11-24T01:42:29.288Z,2.40
2023-11-24T01:44:56.244Z,2.50
2023-11-24T01:47:23.246Z,2.50
2023-11-24T01:49:50.981Z,2.50
2023-11-24T01:52:18.107Z,2.50
2023-11-24T01:54:46.997Z,2.50
2023-11-24T01:57:14.133Z,2.50
2023-11-24T01:59:41.863Z,2.50
2023-11-24T02:02:08.943Z,2.50
2023-11-24T02:04:35.963Z,2.50
2023-11-24T02:07:03.860Z,2.50
2023-11-24T02:09:31.734Z,2.60
2023-11-24T02:11:58.889Z,2.50
2023-11-24T02:14:25.882Z,2.50
2023-11-24T02:16:52.966Z,2.60
2023-11-24T02:19:20.019Z,2.60
2023-11-24T02:21:46.990Z,2.60
2023-11-24T02:24:15.281Z,2.60
2023-11-24T02:26:42.371Z,2.50
2023-11-24T02:29:10.818Z,2.40
2023-11-24T02:31:37.908Z,2.50
2023-11-24T02:34:05.267Z,2.40
2023-11-24T02:36:34.293Z,2.50
2023-11-24T02:39:01.322Z,2.40
2023-11-24T02:41:28.325Z,2.50
2023-11-24T02:43:55.762Z,2.50
2023-11-24T02:46:22.925Z,2.50
2023-11-24T02:48:50.173Z,2.50
2023-11-24T02:51:19.386Z,2.50
2023-11-24T02:53:47.057Z,2.60
2023-11-24T02:56:14.247Z,2.60
2023-11-24T02:58:41.180Z,2.60
2023-11-24T03:01:08.262Z,2.60
2023-11-24T03:03:35.516Z,2.60
2023-11-24T03:06:07.949Z,2.60
2023-11-24T03:08:35.494Z,2.60
2023-11-24T03:11:07.273Z,2.50
2023-11-24T03:13:35.628Z,2.60
2023-11-24T03:16:09.343Z,2.60
2023-11-24T03:18:36.448Z,2.50
2023-11-24T03:21:03.514Z,2.50
2023-11-24T03:23:30.489Z,2.50
2023-11-24T03:25:57.633Z,2.50
2023-11-24T03:28:25.299Z,2.50
2023-11-24T03:30:52.284Z,2.50
2023-11-24T03:33:21.608Z,2.50
2023-11-24T03:35:48.667Z,2.50
2023-11-24T03:38:15.905Z,2.50
2023-11-24T03:40:44.049Z,2.50
2023-11-24T03:43:11.175Z,2.50
2023-11-24T03:45:38.143Z,2.50
2023-11-24T03:48:05.558Z,2.50
2023-11-24T03:50:32.660Z,2.50
2023-11-24T03:52:59.633Z,2.50
2023-11-24T03:55:26.922Z,2.50
2023-11-24T03:57:53.996Z,2.50
2023-11-24T04:00:21.656Z,2.50
2023-11-24T04:02:49.040Z,2.50
2023-11-24T04:05:17.716Z,2.50
2023-11-24T04:07:45.050Z,2.50
2023-11-24T04:10:12.214Z,2.40
2023-11-24T04:12:39.302Z,2.40
2023-11-24T04:15:09.136Z,2.40
2023-11-24T04:17:37.149Z,2.50
2023-11-24T04:20:08.169Z,2.40
2023-11-24T04:22:35.909Z,2.50
2023-11-24T04:25:03.248Z,2.50
2023-11-24T04:27:30.337Z,2.40
2023-11-24T04:29:57.702Z,2.40
2023-11-24T04:32:24.748Z,2.40
2023-11-24T04:34:52.025Z,2.30
2023-11-24T04:37:21.046Z,2.40
2023-11-24T04:39:48.050Z,2.40
2023-11-24T04:42:16.591Z,2.40
2023-11-24T04:44:43.601Z,2.40
2023-11-24T04:47:11.384Z,2.30
2023-11-24T04:49:38.532Z,2.30
2023-11-24T04:52:05.777Z,2.30
2023-11-24T04:54:32.829Z,2.30
2023-11-24T04:56:59.811Z,2.30
2023-11-24T04:59:28.968Z,2.30
2023-11-24T05:01:56.140Z,2.40
2023-11-24T05:04:23.365Z,2.30
2023-11-24T05:06:50.567Z,2.30
2023-11-24T05:09:18.108Z,2.30
2023-11-24T05:11:45.123Z,2.30
2023-11-24T05:14:12.220Z,2.40
2023-11-24T05:16:39.184Z,2.30
2023-11-24T05:19:06.199Z,2.30
2023-11-24T05:21:33.251Z,2.30
2023-11-24T05:24:00.310Z,2.30
2023-11-24T05:26:27.349Z,2.30
2023-11-24T05:28:54.417Z,2.30
2023-11-24T05:31:21.456Z,2.30
2023-11-24T05:33:49.386Z,2.20
2023-11-24T05:36:16.440Z,2.20
2023-11-24T05:38:43.463Z,2.10
2023-11-24T05:41:10.454Z,2.10
2023-11-24T05:43:37.610Z,2.00
2023-11-24T05:46:04.927Z,2.00
2023-11-24T05:48:31.959Z,2.10
2023-11-24T05:50:59.856Z,2.10
2023-11-24T05:53:27.026Z,2.10
2023-11-24T05:55:55.100Z,2.10
2023-11-24T05:58:23.050Z,2.10
2023-11-24T06:03:17.618Z,2.10
2023-11-24T06:05:45.030Z,2.10
2023-11-24T06:08:12.387Z,2.10
2023-11-24T06:10:39.556Z,2.10
2023-11-24T06:13:06.606Z,2.10
2023-11-24T06:15:33.639Z,2.10
2023-11-24T06:18:00.866Z,2.10
2023-11-24T06:20:27.957Z,2.10
2023-11-24T06:22:55.774Z,2.00
2023-11-24T06:25:22.817Z,2.00
2023-11-24T06:27:50.031Z,2.00
2023-11-24T06:30:17.033Z,2.00
2023-11-24T06:32:44.115Z,1.90
2023-11-24T06:35:11.538Z,1.90
2023-11-24T06:37:38.803Z,2.00
2023-11-24T06:40:06.770Z,1.90
2023-11-24T06:42:33.792Z,1.90
2023-11-24T06:45:00.794Z,1.80
2023-11-24T06:47:27.821Z,1.80
2023-11-24T06:49:54.933Z,1.80
2023-11-24T06:52:21.881Z,1.90
2023-11-24T06:54:48.867Z,1.90
2023-11-24T06:57:17.598Z,1.90
2023-11-24T06:59:44.908Z,1.90
2023-11-24T07:02:12.056Z,1.90
2023-11-24T07:04:39.098Z,1.90
2023-11-24T07:07:06.176Z,1.90
2023-11-24T07:09:33.318Z,1.80
2023-11-24T07:12:00.369Z,1.80
2023-11-24T07:14:27.986Z,1.80
2023-11-24T07:16:54.950Z,1.80
2023-11-24T07:19:23.273Z,1.90
2023-11-24T07:21:50.298Z,1.90
2023-11-24T07:24:18.814Z,1.90
2023-11-24T07:26:45.863Z,1.90
2023-11-24T07:29:15.544Z,1.90
2023-11-24T07:31:42.610Z,1.90
2023-11-24T07:34:11.977Z,2.00
2023-11-24T07:36:39.044Z,2.00
2023-11-24T07:39:06.101Z,2.00
2023-11-24T07:41:33.087Z,2.00
2023-11-24T07:44:00.212Z,2.00
2023-11-24T07:46:27.391Z,2.00
2023-11-24T07:48:54.355Z,2.10
2023-11-24T07:51:22.904Z,2.00
2023-11-24T07:53:49.869Z,2.10
2023-11-24T07:56:16.888Z,2.10
2023-11-24T07:58:43.891Z,2.10
2023-11-24T08:01:10.946Z,2.10
2023-11-24T08:03:38.243Z,2.10
2023-11-24T08:06:08.975Z,2.10
2023-11-24T08:08:36.696Z,2.10
2023-11-24T08:11:04.139Z,2.10
2023-11-24T08:13:31.160Z,2.20
2023-11-24T08:15:58.179Z,2.20
2023-11-24T08:18:26.005Z,2.20
2023-11-24T08:20:54.128Z,2.10
2023-11-24T08:23:21.275Z,2.10
2023-11-24T08:25:49.663Z,2.10
2023-11-24T08:28:16.589Z,2.10
2023-11-24T08:30:44.830Z,2.20
2023-11-24T08:33:12.544Z,2.10
2023-11-24T08:35:39.881Z,2.20
2023-11-24T08:38:06.833Z,2.20
2023-11-24T08:40:34.000Z,2.20
2023-11-24T08:43:02.306Z,2.20
2023-11-24T08:45:30.854Z,2.20
2023-11-24T08:47:57.819Z,2.20
2023-11-24T08:50:24.824Z,2.20
2023-11-24T08:52:53.653Z,2.20
2023-11-24T08:55:23.512Z,2.20
2023-11-24T08:57:51.039Z,2.10
2023-11-24T09:00:18.335Z,2.10
2023-11-24T09:02:45.696Z,2.20
2023-11-24T09:05:12.922Z,2.20
2023-11-24T09:07:39.974Z,2.20
2023-11-24T09:10:10.089Z,2.30
2023-11-24T09:12:37.196Z,2.30
2023-11-24T09:15:07.792Z,2.30
2023-11-24T09:17:37.943Z,2.20
2023-11-24T09:20:09.502Z,2.30
2023-11-24T09:22:36.509Z,2.30
2023-11-24T09:25:04.068Z,2.40
2023-11-24T09:27:35.631Z,2.40
2023-11-24T09:30:05.605Z,2.30
2023-11-24T09:32:36.501Z,2.30
2023-11-24T09:35:07.287Z,2.20
2023-11-24T09:37:37.178Z,2.20
2023-11-24T09:40:05.319Z,2.10
2023-11-24T09:42:39.410Z,2.10
2023-11-24T09:45:14.919Z,2.10
2023-11-24T09:47:53.031Z,2.20
2023-11-24T09:50:24.906Z,2.10
2023-11-24T09:52:55.741Z,2.20
2023-11-24T09:55:27.142Z,2.10
2023-11-24T09:57:57.259Z,2.20
2023-11-24T10:00:27.246Z,2.10
2023-11-24T10:02:59.383Z,2.20
2023-11-24T10:05:30.778Z,2.20
2023-11-24T10:07:58.502Z,2.10
2023-11-24T10:10:29.957Z,2.10
2023-11-24T10:13:04.226Z,2.10
2023-11-24T10:15:32.486Z,2.10
2023-11-24T10:17:59.747Z,2.10
2023-11-24T10:20:30.266Z,2.10
2023-11-24T10:22:59.968Z,2.10
2023-11-24T10:25:30.005Z,2.00
2023-11-24T10:28:01.865Z,2.00
2023-11-24T10:30:28.895Z,2.00
2023-11-24T10:32:57.981Z,1.90
2023-11-24T10:35:25.150Z,1.90
2023-11-24T10:37:52.792Z,1.80
2023-11-24T10:40:21.819Z,1.80
2023-11-24T10:42:50.570Z,1.80
2023-11-24T10:45:21.950Z,1.70
2023-11-24T10:48:15.432Z,1.70
2023-11-24T10:50:44.389Z,1.60
2023-11-24T10:53:33.824Z,1.60
2023-11-24T10:56:04.768Z,1.60
2023-11-24T10:58:35.270Z,1.60
2023-11-24T11:01:05.137Z,1.60
2023-11-24T11:03:32.454Z,1.60
2023-11-24T11:06:34.570Z,1.60
2023-11-24T11:09:17.553Z,1.50
2023-11-24T11:12:20.429Z,1.50
2023-11-24T11:14:49.302Z,1.60
2023-11-24T11:17:18.622Z,1.50
2023-11-24T11:20:01.351Z,1.50
2023-11-24T11:22:41.267Z,1.60
2023-11-24T11:25:14.625Z,1.60
2023-11-24T11:27:44.048Z,1.60
2023-11-24T11:30:23.396Z,1.60
2023-11-24T11:33:16.558Z,1.60
2023-11-24T11:35:44.503Z,1.60
2023-11-24T11:38:15.069Z,1.60
2023-11-24T11:40:49.145Z,1.60
2023-11-24T11:43:17.157Z,1.60
2023-11-24T11:45:51.297Z,1.60
2023-11-24T11:48:19.026Z,1.60
2023-11-24T11:51:06.365Z,1.60
2023-11-24T11:53:35.314Z,1.60
2023-11-24T11:56:08.003Z,1.50
2023-11-24T11:58:36.242Z,1.60
2023-11-24T12:01:08.114Z,1.70
2023-11-24T12:03:36.154Z,1.70
2023-11-24T12:06:07.510Z,1.70
2023-11-24T12:08:35.058Z,1.60
2023-11-24T12:11:02.187Z,1.70
2023-11-24T12:13:30.329Z,1.60
2023-11-24T12:16:00.679Z,1.60
2023-11-24T12:18:28.123Z,1.60
2023-11-24T12:20:55.753Z,1.70
2023-11-24T12:23:24.706Z,1.60
2023-11-24T12:25:56.179Z,1.60
2023-11-24T12:28:23.962Z,1.60
2023-11-24T12:30:51.068Z,1.60
2023-11-24T12:33:20.213Z,1.60
2023-11-24T12:35:52.437Z,1.60
2023-11-24T12:38:20.730Z,1.60
2023-11-24T12:40:50.307Z,1.60
2023-11-24T12:43:19.299Z,1.50
2023-11-24T12:45:50.819Z,1.60
2023-11-24T12:48:25.733Z,1.60
2023-11-24T12:50:59.869Z,1.60
2023-11-24T12:53:27.259Z,1.50
2023-11-24T12:55:54.283Z,1.50
2023-11-24T12:58:21.563Z,1.60
2023-11-24T13:00:51.275Z,1.50
2023-11-24T13:03:18.332Z,1.60
2023-11-24T13:05:45.870Z,1.50
2023-11-24T13:08:13.621Z,1.40
2023-11-24T13:10:42.017Z,1.50
2023-11-24T13:13:09.308Z,1.50
2023-11-24T13:15:37.043Z,1.40
2023-11-24T13:18:04.395Z,1.40
2023-11-24T13:20:34.164Z,1.40
2023-11-24T13:23:01.276Z,1.40
2023-11-24T13:25:30.446Z,1.40
2023-11-24T13:27:58.140Z,1.30
2023-11-24T13:30:26.976Z,1.30
2023-11-24T13:32:54.633Z,1.30
2023-11-24T13:35:22.015Z,1.40
2023-11-24T13:37:51.053Z,1.40
2023-11-24T13:40:21.508Z,1.40
2023-11-24T13:42:49.092Z,1.40
2023-11-24T13:45:18.178Z,1.30
2023-11-24T13:47:45.959Z,1.30
2023-11-24T13:50:15.209Z,1.30
2023-11-24T13:52:44.137Z,1.30
2023-11-24T13:55:13.170Z,1.30
2023-11-24T13:57:40.846Z,1.30
2023-11-24T14:00:12.119Z,1.30
2023-11-24T14:02:39.436Z,1.30
2023-11-24T14:05:09.939Z,1.30
2023-11-24T14:07:37.091Z,1.20
2023-11-24T14:10:05.849Z,1.20
2023-11-24T14:12:34.677Z,1.20
2023-11-24T14:15:04.885Z,1.30
2023-11-24T14:17:34.273Z,1.30
2023-11-24T14:20:08.175Z,1.30
2023-11-24T14:22:35.340Z,1.30
2023-11-24T14:25:02.339Z,1.30
2023-11-24T14:27:29.281Z,1.20
2023-11-24T14:29:56.251Z,1.30
2023-11-24T14:32:24.215Z,1.30
2023-11-24T14:34:51.369Z,1.20
2023-11-24T14:37:18.999Z,1.30
2023-11-24T14:39:47.219Z,1.30
2023-11-24T14:42:16.283Z,1.20
2023-11-24T14:44:43.595Z,1.20
2023-11-24T14:47:11.050Z,1.10
2023-11-24T14:49:38.124Z,1.20
2023-11-24T14:52:08.877Z,1.20
2023-11-24T14:54:38.029Z,1.10
2023-11-24T14:57:06.110Z,1.10
2023-11-24T14:59:34.512Z,1.20
2023-11-24T15:02:03.481Z,1.10
2023-11-24T15:04:33.148Z,1.10
2023-11-24T15:07:03.749Z,1.10
2023-11-24T15:09:32.106Z,1.20
2023-11-24T15:11:59.784Z,1.10
2023-11-24T15:14:34.586Z,1.10
2023-11-24T15:17:06.885Z,1.10
2023-11-24T15:19:40.784Z,1.10
2023-11-24T15:22:20.130Z,1.10
2023-11-24T15:24:54.635Z,1.10
2023-11-24T15:27:25.762Z,1.30
2023-11-24T15:29:53.931Z,1.30
2023-11-24T15:32:23.283Z,1.20
2023-11-24T15:34:53.805Z,1.30
2023-11-24T15:37:21.824Z,1.30
2023-11-24T15:39:58.835Z,1.30
2023-11-24T15:42:30.723Z,1.20
2023-11-24T15:45:00.454Z,1.10
2023-11-24T15:47:30.473Z,1.10
2023-11-24T15:50:01.590Z,1.20
2023-11-24T15:52:33.043Z,1.10
2023-11-24T15:55:01.107Z,1.10
2023-11-24T15:57:29.687Z,1.20
2023-11-24T16:00:03.325Z,1.20
2023-11-24T16:02:34.137Z,1.20
2023-11-24T16:05:06.490Z,1.20
2023-11-24T16:07:38.728Z,1.30
2023-11-24T16:10:17.186Z,1.30
2023-11-24T16:12:46.724Z,1.20
2023-11-24T16:15:20.348Z,1.20
2023-11-24T16:17:51.180Z,1.30
2023-11-24T16:20:19.368Z,1.30
2023-11-24T16:22:48.189Z,1.30
2023-11-24T16:25:16.349Z,1.20
2023-11-24T16:27:44.120Z,1.30
2023-11-24T16:30:12.282Z,1.30
2023-11-24T16:32:41.121Z,1.30
2023-11-24T16:35:13.128Z,1.30
2023-11-24T16:37:41.259Z,1.30
2023-11-24T16:40:16.429Z,1.20
2023-11-24T16:42:46.015Z,1.20
2023-11-24T16:45:16.174Z,1.20
2023-11-24T16:47:44.268Z,1.10
2023-11-24T16:50:12.840Z,1.10
2023-11-24T16:52:47.379Z,1.20
2023-11-24T16:55:16.905Z,1.10
2023-11-24T16:57:44.934Z,1.00
2023-11-24T17:00:16.663Z,1.00
2023-11-24T17:02:44.393Z,1.00
2023-11-24T17:05:17.526Z,0.90
2023-11-24T17:07:47.703Z,1.00
2023-11-24T17:10:16.312Z,1.00
2023-11-24T17:12:43.916Z,1.00
2023-11-24T17:15:13.218Z,0.90
2023-11-24T17:17:47.025Z,1.00
2023-11-24T17:20:18.983Z,1.00
2023-11-24T17:22:47.316Z,1.00
2023-11-24T17:25:24.700Z,0.90
2023-11-24T17:28:01.245Z,1.00
2023-11-24T17:30:30.738Z,0.90
2023-11-24T17:32:58.920Z,0.90
2023-11-24T17:35:27.500Z,0.90
2023-11-24T17:37:54.504Z,0.90
2023-11-24T17:40:23.066Z,0.90
2023-11-24T17:42:52.394Z,0.90
2023-11-24T17:45:20.052Z,0.80
2023-11-24T17:47:47.807Z,0.80
2023-11-24T17:50:17.358Z,0.80
2023-11-24T17:52:44.322Z,0.80
2023-11-24T17:55:11.376Z,0.90
2023-11-24T17:57:38.513Z,0.90
2023-11-24T18:00:12.609Z,0.80
2023-11-24T18:02:39.928Z,0.80
2023-11-24T18:05:08.334Z,0.90
2023-11-24T18:07:36.353Z,0.90
2023-11-24T18:10:04.546Z,0.90
2023-11-24T18:12:31.803Z,0.90
2023-11-24T18:14:58.902Z,0.80
2023-11-24T18:17:26.593Z,0.80
2023-11-24T18:19:56.071Z,0.80
2023-11-24T18:22:23.156Z,0.80
2023-11-24T18:24:50.232Z,0.70
2023-11-24T18:27:17.667Z,0.70
2023-11-24T18:29:44.823Z,0.70
2023-11-24T18:32:12.858Z,0.70
2023-11-24T18:34:40.374Z,0.70
2023-11-24T18:37:07.429Z,0.80
2023-11-24T18:39:34.472Z,0.80
2023-11-24T18:42:01.428Z,0.80
2023-11-24T18:44:28.392Z,0.80
2023-11-24T18:46:55.757Z,0.80
2023-11-24T18:49:22.804Z,0.90
2023-11-24T18:51:49.879Z,0.80
2023-11-24T18:54:17.000Z,0.80
2023-11-24T18:56:44.084Z,0.90
2023-11-24T18:59:12.080Z,0.90
2023-11-24T19:01:39.155Z,0.90
2023-11-24T19:04:06.180Z,0.90
2023-11-24T19:06:33.232Z,1.00
2023-11-24T19:09:00.238Z,1.00
2023-11-24T19:11:27.391Z,1.00
2023-11-24T19:13:54.708Z,1.00
2023-11-24T19:16:21.814Z,1.00
2023-11-24T19:18:48.881Z,1.00
2023-11-24T19:21:16.144Z,1.00
2023-11-24T19:23:43.205Z,1.00
2023-11-24T19:26:13.292Z,1.00
2023-11-24T19:28:43.939Z,1.00
2023-11-24T19:31:11.006Z,1.10
2023-11-24T19:33:38.175Z,1.00
2023-11-24T19:36:05.719Z,1.10
2023-11-24T19:38:34.488Z,1.10
2023-11-24T19:41:06.368Z,1.10
2023-11-24T19:43:35.632Z,1.10
2023-11-24T19:46:05.591Z,1.10
2023-11-24T19:48:32.670Z,1.20
2023-11-24T19:50:59.779Z,1.20
2023-11-24T19:53:27.106Z,1.20
2023-11-24T19:55:54.706Z,1.20
2023-11-24T19:58:22.861Z,1.30
2023-11-24T20:00:49.851Z,1.30
2023-11-24T20:03:17.129Z,1.20
2023-11-24T20:05:44.328Z,1.30
2023-11-24T20:08:11.506Z,1.20
2023-11-24T20:10:39.516Z,1.20
2023-11-24T20:13:06.545Z,1.20
2023-11-24T20:15:33.589Z,1.20
2023-11-24T20:18:03.489Z,1.20
2023-11-24T20:20:30.506Z,1.10
2023-11-24T20:22:57.628Z,1.10
2023-11-24T20:25:24.726Z,1.10
2023-11-24T20:28:02.397Z,1.10
2023-11-24T20:30:57.406Z,1.10
2023-11-24T20:33:26.951Z,1.10
2023-11-24T20:35:54.064Z,1.10
2023-11-24T20:38:23.067Z,1.10
2023-11-24T20:40:53.230Z,1.10
2023-11-24T20:43:26.549Z,1.10
2023-11-24T20:45:53.625Z,1.00
2023-11-24T20:48:21.502Z,1.10
2023-11-24T20:50:48.545Z,1.10
2023-11-24T20:53:15.725Z,1.10
2023-11-24T20:55:42.848Z,1.10
2023-11-24T20:58:09.883Z,1.10
2023-11-24T21:00:36.821Z,1.10
2023-11-24T21:03:04.543Z,1.10
2023-11-24T21:05:31.767Z,1.10
2023-11-24T21:07:58.866Z,1.10
2023-11-24T21:10:27.755Z,1.10
2023-11-24T21:12:55.007Z,1.10
2023-11-24T21:15:22.624Z,1.10
2023-11-24T21:17:50.979Z,1.10
2023-11-24T21:20:19.492Z,1.10
2023-11-24T21:22:47.046Z,1.10
2023-11-24T21:25:14.428Z,1.10
2023-11-24T21:27:41.485Z,1.20
2023-11-24T21:30:08.929Z,1.10
2023-11-24T21:32:36.159Z,1.10
2023-11-24T21:35:05.041Z,1.10
2023-11-24T21:37:32.195Z,1.10
2023-11-24T21:40:02.046Z,1.10
2023-11-24T21:42:31.160Z,1.10
2023-11-24T21:44:58.291Z,1.10
2023-11-24T21:47:25.485Z,1.10
2023-11-24T21:49:54.155Z,1.10
2023-11-24T21:52:21.290Z,1.10
2023-11-24T21:54:48.868Z,1.20
2023-11-24T21:57:20.201Z,1.20
2023-11-24T21:59:47.474Z,1.20
2023-11-24T22:02:15.166Z,1.20
2023-11-24T22:04:42.792Z,1.20
2023-11-24T22:07:10.070Z,1.20
2023-11-24T22:09:37.091Z,1.20
2023-11-24T22:12:05.254Z,1.30
2023-11-24T22:14:32.571Z,1.20
2023-11-24T22:17:00.973Z,1.20
2023-11-24T22:19:28.082Z,1.20
2023-11-24T22:21:55.151Z,1.20
2023-11-24T22:24:22.224Z,1.10
2023-11-24T22:26:51.805Z,1.10
2023-11-24T22:29:18.861Z,1.20
2023-11-24T22:31:46.717Z,1.20
2023-11-24T22:34:13.833Z,1.10
2023-11-24T22:36:40.833Z,1.10
2023-11-24T22:39:08.633Z,1.20
2023-11-24T22:41:37.690Z,1.20
2023-11-24T22:44:12.641Z,1.20
2023-11-24T22:46:42.599Z,1.20
2023-11-24T22:49:12.032Z,1.20
2023-11-24T22:51:39.138Z,1.10
2023-11-24T22:54:06.251Z,1.10
2023-11-24T22:56:33.355Z,1.10
2023-11-24T22:59:00.864Z,1.10
2023-11-24T23:01:29.100Z,1.20
2023-11-24T23:03:57.918Z,1.10
2023-11-24T23:06:26.574Z,1.10
2023-11-24T23:08:55.452Z,1.10
2023-11-24T23:11:23.438Z,1.10
2023-11-24T23:13:52.353Z,1.00
2023-11-24T23:16:26.498Z,1.00
2023-11-24T23:18:53.889Z,1.10
2023-11-24T23:21:24.050Z,1.00
2023-11-24T23:23:52.291Z,1.00
2023-11-24T23:26:19.634Z,1.00
2023-11-24T23:28:49.542Z,1.00
2023-11-24T23:31:18.441Z,1.00
2023-11-24T23:33:47.257Z,1.00
2023-11-24T23:36:15.587Z,1.00
2023-11-24T23:38:44.181Z,1.00
2023-11-24T23:41:11.612Z,1.00
2023-11-24T23:43:39.070Z,1.00
2023-11-24T23:46:06.996Z,1.00
2023-11-24T23:48:34.618Z,1.00
2023-11-24T23:51:01.734Z,1.00
2023-11-24T23:53:29.644Z,1.00
2023-11-24T23:55:58.080Z,1.00
2023-11-24T23:58:27.115Z,1.10
